Accueil
METAR-TAF:

METAR-TAF

Aéroports :

Aéroport international de Sunan

Pyongyang, Corée du Nord

latitude: 39-02N, longitude: 125-47E, altitude: 36 m

METAR: absent

Heure: 06:18 (21:18 UTC)

Prévision

Le bulletin a été fait il y a 16 heures et 48 minutes, à 04:30 UTC
Prévision valable du 22 à 06 UTC au 23 à 06 UTC
Vent 6 kt de nord/nord-est
Visibilité: 4000 m
Nuages épars à une hauteur de 1300 ft
Evoluant progressivement
du 22 à 12 UTC au 22 à 14 UTC
Vent 4 kt de est
Evoluant progressivement
du 22 à 18 UTC au 22 à 20 UTC
Nuages fragmentés à une hauteur de 2000 ft

TAF: ZKPY 220430Z 2206/2306 03003MPS 4000 SCT013 TX07/2206Z TN00/2221Z BECMG 2212/2214 09002MPS BECMG 2218/2220 BKN020

Observations et prévisions météorologiques de plus de 4000 aéroports (messages METAR et TAF).

Les stations disponibles sont représentées par des disques jaunes et rouges sur la carte.

Passer la souris dessus pour voir le nom de la station.

Cliquer dessus pour voir les observations et prévisions météorologiques.

Pour changer de carte: cliquez sur les boutons verts avec une croix noire pour zoomer, sur le bouton vert avec un tiret pour effectuer un zoom arrière, ou sur les flèches vertes pour les cartes adjacentes.


METAR-TAF: